sensor_id;sensor_type;location;lat;lon;timestamp;temperature;humidity
4306;DHT22;2166;49.926;8.608;2023-06-14T00:00:37;15.50;70.00
4306;DHT22;2166;49.926;8.608;2023-06-14T00:03:12;15.50;69.80
4306;DHT22;2166;49.926;8.608;2023-06-14T00:05:45;15.50;69.70
4306;DHT22;2166;49.926;8.608;2023-06-14T00:08:15;15.40;69.80
4306;DHT22;2166;49.926;8.608;2023-06-14T00:10:50;15.40;69.90
4306;DHT22;2166;49.926;8.608;2023-06-14T00:13:19;15.40;69.90
4306;DHT22;2166;49.926;8.608;2023-06-14T00:15:47;15.40;70.10
4306;DHT22;2166;49.926;8.608;2023-06-14T00:18:17;15.30;70.00
4306;DHT22;2166;49.926;8.608;2023-06-14T00:20:50;15.30;70.10
4306;DHT22;2166;49.926;8.608;2023-06-14T00:23:20;15.30;70.30
4306;DHT22;2166;49.926;8.608;2023-06-14T00:25:49;15.20;70.60
4306;DHT22;2166;49.926;8.608;2023-06-14T00:28:20;15.20;70.80
4306;DHT22;2166;49.926;8.608;2023-06-14T00:30:51;15.10;71.10
4306;DHT22;2166;49.926;8.608;2023-06-14T00:33:23;15.10;70.80
4306;DHT22;2166;49.926;8.608;2023-06-14T00:35:56;15.10;70.90
4306;DHT22;2166;49.926;8.608;2023-06-14T00:38:24;15.10;71.10
4306;DHT22;2166;49.926;8.608;2023-06-14T00:40:53;15.10;70.90
4306;DHT22;2166;49.926;8.608;2023-06-14T00:43:22;15.10;71.00
4306;DHT22;2166;49.926;8.608;2023-06-14T00:45:53;15.10;70.70
4306;DHT22;2166;49.926;8.608;2023-06-14T00:48:26;15.10;70.20
4306;DHT22;2166;49.926;8.608;2023-06-14T00:50:55;15.20;70.30
4306;DHT22;2166;49.926;8.608;2023-06-14T00:53:24;15.20;70.20
4306;DHT22;2166;49.926;8.608;2023-06-14T00:55:53;15.20;70.20
4306;DHT22;2166;49.926;8.608;2023-06-14T00:58:22;15.20;70.30
4306;DHT22;2166;49.926;8.608;2023-06-14T01:00:51;15.20;70.30
4306;DHT22;2166;49.926;8.608;2023-06-14T01:03:20;15.20;70.30
4306;DHT22;2166;49.926;8.608;2023-06-14T01:05:56;15.20;70.30
4306;DHT22;2166;49.926;8.608;2023-06-14T01:08:39;15.20;70.30
4306;DHT22;2166;49.926;8.608;2023-06-14T01:11:18;15.10;70.50
4306;DHT22;2166;49.926;8.608;2023-06-14T01:13:50;15.10;70.70
4306;DHT22;2166;49.926;8.608;2023-06-14T01:16:21;15.10;70.60
4306;DHT22;2166;49.926;8.608;2023-06-14T01:18:52;15.10;70.60
4306;DHT22;2166;49.926;8.608;2023-06-14T01:21:25;15.10;70.50
4306;DHT22;2166;49.926;8.608;2023-06-14T01:23:56;15.10;70.60
4306;DHT22;2166;49.926;8.608;2023-06-14T01:26:26;15.10;70.50
4306;DHT22;2166;49.926;8.608;2023-06-14T01:28:59;15.10;70.40
4306;DHT22;2166;49.926;8.608;2023-06-14T01:31:28;15.10;70.70
4306;DHT22;2166;49.926;8.608;2023-06-14T01:34:07;15.00;70.80
4306;DHT22;2166;49.926;8.608;2023-06-14T01:36:37;15.00;70.80
4306;DHT22;2166;49.926;8.608;2023-06-14T01:39:12;15.00;71.00
4306;DHT22;2166;49.926;8.608;2023-06-14T01:41:42;14.90;71.20
4306;DHT22;2166;49.926;8.608;2023-06-14T01:44:13;14.90;71.20
4306;DHT22;2166;49.926;8.608;2023-06-14T01:46:42;14.90;71.20
4306;DHT22;2166;49.926;8.608;2023-06-14T01:49:12;14.90;71.20
4306;DHT22;2166;49.926;8.608;2023-06-14T01:51:41;14.90;71.00
4306;DHT22;2166;49.926;8.608;2023-06-14T01:54:11;14.90;70.80
4306;DHT22;2166;49.926;8.608;2023-06-14T01:56:40;14.90;70.80
4306;DHT22;2166;49.926;8.608;2023-06-14T01:59:08;14.90;70.60
4306;DHT22;2166;49.926;8.608;2023-06-14T02:01:37;14.90;70.80
4306;DHT22;2166;49.926;8.608;2023-06-14T02:04:06;14.90;70.60
4306;DHT22;2166;49.926;8.608;2023-06-14T02:06:34;14.90;70.80
4306;DHT22;2166;49.926;8.608;2023-06-14T02:09:03;14.90;70.80
4306;DHT22;2166;49.926;8.608;2023-06-14T02:11:32;14.90;70.40
4306;DHT22;2166;49.926;8.608;2023-06-14T02:14:01;14.90;70.60
4306;DHT22;2166;49.926;8.608;2023-06-14T02:16:29;14.90;70.60
4306;DHT22;2166;49.926;8.608;2023-06-14T02:19:00;14.90;70.80
4306;DHT22;2166;49.926;8.608;2023-06-14T02:21:28;14.90;70.80
4306;DHT22;2166;49.926;8.608;2023-06-14T02:23:56;14.80;70.80
4306;DHT22;2166;49.926;8.608;2023-06-14T02:26:27;14.80;71.00
4306;DHT22;2166;49.926;8.608;2023-06-14T02:28:57;14.80;71.00
4306;DHT22;2166;49.926;8.608;2023-06-14T02:31:26;14.80;70.90
4306;DHT22;2166;49.926;8.608;2023-06-14T02:33:57;14.80;70.90
4306;DHT22;2166;49.926;8.608;2023-06-14T02:36:26;14.80;70.80
4306;DHT22;2166;49.926;8.608;2023-06-14T02:38:56;14.80;70.90
4306;DHT22;2166;49.926;8.608;2023-06-14T02:41:25;14.70;71.00
4306;DHT22;2166;49.926;8.608;2023-06-14T02:43:54;14.70;71.10
4306;DHT22;2166;49.926;8.608;2023-06-14T02:46:24;14.70;71.10
4306;DHT22;2166;49.926;8.608;2023-06-14T02:48:53;14.60;71.20
4306;DHT22;2166;49.926;8.608;2023-06-14T02:51:21;14.60;71.30
4306;DHT22;2166;49.926;8.608;2023-06-14T02:53:49;14.60;71.10
4306;DHT22;2166;49.926;8.608;2023-06-14T02:56:21;14.60;71.20
4306;DHT22;2166;49.926;8.608;2023-06-14T02:58:50;14.60;71.10
4306;DHT22;2166;49.926;8.608;2023-06-14T03:01:20;14.60;71.10
4306;DHT22;2166;49.926;8.608;2023-06-14T03:03:52;14.60;71.10
4306;DHT22;2166;49.926;8.608;2023-06-14T03:06:20;14.60;70.90
4306;DHT22;2166;49.926;8.608;2023-06-14T03:08:53;14.60;71.10
4306;DHT22;2166;49.926;8.608;2023-06-14T03:11:22;14.60;71.00
4306;DHT22;2166;49.926;8.608;2023-06-14T03:13:51;14.50;71.20
4306;DHT22;2166;49.926;8.608;2023-06-14T03:16:21;14.50;71.30
4306;DHT22;2166;49.926;8.608;2023-06-14T03:18:53;14.50;71.40
4306;DHT22;2166;49.926;8.608;2023-06-14T03:21:25;14.40;71.50
4306;DHT22;2166;49.926;8.608;2023-06-14T03:23:57;14.40;71.50
4306;DHT22;2166;49.926;8.608;2023-06-14T03:26:26;14.40;71.60
4306;DHT22;2166;49.926;8.608;2023-06-14T03:28:56;14.40;71.60
4306;DHT22;2166;49.926;8.608;2023-06-14T03:31:25;14.40;71.70
4306;DHT22;2166;49.926;8.608;2023-06-14T03:33:56;14.40;71.80
4306;DHT22;2166;49.926;8.608;2023-06-14T03:36:25;14.40;71.80
4306;DHT22;2166;49.926;8.608;2023-06-14T03:38:54;14.50;71.70
4306;DHT22;2166;49.926;8.608;2023-06-14T03:41:24;14.50;71.70
4306;DHT22;2166;49.926;8.608;2023-06-14T03:43:54;14.50;71.60
4306;DHT22;2166;49.926;8.608;2023-06-14T03:46:22;14.60;71.70
4306;DHT22;2166;49.926;8.608;2023-06-14T03:48:53;14.60;71.50
4306;DHT22;2166;49.926;8.608;2023-06-14T03:51:23;14.60;71.30
4306;DHT22;2166;49.926;8.608;2023-06-14T03:53:52;14.60;71.50
4306;DHT22;2166;49.926;8.608;2023-06-14T03:56:26;14.60;71.60
4306;DHT22;2166;49.926;8.608;2023-06-14T03:58:54;14.60;71.70
4306;DHT22;2166;49.926;8.608;2023-06-14T04:01:26;14.70;71.60
4306;DHT22;2166;49.926;8.608;2023-06-14T04:03:59;14.80;71.50
4306;DHT22;2166;49.926;8.608;2023-06-14T04:06:29;14.90;71.20
4306;DHT22;2166;49.926;8.608;2023-06-14T04:08:59;15.20;70.80
4306;DHT22;2166;49.926;8.608;2023-06-14T04:11:31;15.50;70.20
4306;DHT22;2166;49.926;8.608;2023-06-14T04:14:02;15.80;69.30
4306;DHT22;2166;49.926;8.608;2023-06-14T04:16:32;16.10;68.50
4306;DHT22;2166;49.926;8.608;2023-06-14T04:19:00;16.50;67.50
4306;DHT22;2166;49.926;8.608;2023-06-14T04:21:31;16.80;66.70
4306;DHT22;2166;49.926;8.608;2023-06-14T04:24:04;17.20;65.60
4306;DHT22;2166;49.926;8.608;2023-06-14T04:26:34;17.60;64.50
4306;DHT22;2166;49.926;8.608;2023-06-14T04:29:03;17.80;63.80
4306;DHT22;2166;49.926;8.608;2023-06-14T04:31:39;18.10;63.20
4306;DHT22;2166;49.926;8.608;2023-06-14T04:34:11;18.50;61.70
4306;DHT22;2166;49.926;8.608;2023-06-14T04:36:51;18.70;61.10
4306;DHT22;2166;49.926;8.608;2023-06-14T04:39:25;19.10;60.20
4306;DHT22;2166;49.926;8.608;2023-06-14T04:41:55;19.50;59.00
4306;DHT22;2166;49.926;8.608;2023-06-14T04:44:28;19.90;58.40
4306;DHT22;2166;49.926;8.608;2023-06-14T04:47:01;20.10;57.40
4306;DHT22;2166;49.926;8.608;2023-06-14T04:49:31;20.30;57.20
4306;DHT22;2166;49.926;8.608;2023-06-14T04:52:02;20.40;56.70
4306;DHT22;2166;49.926;8.608;2023-06-14T04:54:35;20.70;56.30
4306;DHT22;2166;49.926;8.608;2023-06-14T04:57:09;21.10;55.40
4306;DHT22;2166;49.926;8.608;2023-06-14T04:59:43;21.20;54.70
4306;DHT22;2166;49.926;8.608;2023-06-14T05:02:11;21.50;54.40
4306;DHT22;2166;49.926;8.608;2023-06-14T05:04:40;21.60;53.80
4306;DHT22;2166;49.926;8.608;2023-06-14T05:07:10;21.60;54.00
4306;DHT22;2166;49.926;8.608;2023-06-14T05:09:39;21.60;53.90
4306;DHT22;2166;49.926;8.608;2023-06-14T05:12:07;21.80;53.50
4306;DHT22;2166;49.926;8.608;2023-06-14T05:14:36;22.00;53.10
4306;DHT22;2166;49.926;8.608;2023-06-14T05:17:06;22.00;53.00
4306;DHT22;2166;49.926;8.608;2023-06-14T05:19:36;22.30;52.80
4306;DHT22;2166;49.926;8.608;2023-06-14T05:22:05;22.60;52.00
4306;DHT22;2166;49.926;8.608;2023-06-14T05:24:35;22.50;51.90
4306;DHT22;2166;49.926;8.608;2023-06-14T05:27:04;22.60;51.70
4306;DHT22;2166;49.926;8.608;2023-06-14T05:29:32;23.00;51.40
4306;DHT22;2166;49.926;8.608;2023-06-14T05:32:04;22.90;51.00
4306;DHT22;2166;49.926;8.608;2023-06-14T05:34:32;23.00;50.90
4306;DHT22;2166;49.926;8.608;2023-06-14T05:37:00;22.90;50.60
4306;DHT22;2166;49.926;8.608;2023-06-14T05:39:31;22.70;51.10
4306;DHT22;2166;49.926;8.608;2023-06-14T05:42:01;22.90;51.10
4306;DHT22;2166;49.926;8.608;2023-06-14T05:44:30;23.00;50.60
4306;DHT22;2166;49.926;8.608;2023-06-14T05:46:59;23.10;50.50
4306;DHT22;2166;49.926;8.608;2023-06-14T05:49:28;23.20;49.70
4306;DHT22;2166;49.926;8.608;2023-06-14T05:51:57;23.50;49.90
4306;DHT22;2166;49.926;8.608;2023-06-14T05:54:27;24.10;49.40
4306;DHT22;2166;49.926;8.608;2023-06-14T05:56:55;24.30;48.20
4306;DHT22;2166;49.926;8.608;2023-06-14T05:59:29;24.50;48.00
4306;DHT22;2166;49.926;8.608;2023-06-14T06:01:58;24.60;47.60
4306;DHT22;2166;49.926;8.608;2023-06-14T06:04:28;24.60;47.30
4306;DHT22;2166;49.926;8.608;2023-06-14T06:06:56;24.70;47.30
4306;DHT22;2166;49.926;8.608;2023-06-14T06:09:25;24.70;47.20
4306;DHT22;2166;49.926;8.608;2023-06-14T06:11:55;24.50;47.30
4306;DHT22;2166;49.926;8.608;2023-06-14T06:14:24;24.40;47.70
4306;DHT22;2166;49.926;8.608;2023-06-14T06:16:54;24.40;47.80
4306;DHT22;2166;49.926;8.608;2023-06-14T06:19:23;24.70;47.80
4306;DHT22;2166;49.926;8.608;2023-06-14T06:21:52;25.30;47.00
4306;DHT22;2166;49.926;8.608;2023-06-14T06:24:22;25.70;46.20
4306;DHT22;2166;49.926;8.608;2023-06-14T06:26:51;25.90;45.30
4306;DHT22;2166;49.926;8.608;2023-06-14T06:29:20;25.80;45.40
4306;DHT22;2166;49.926;8.608;2023-06-14T06:31:49;25.90;45.50
4306;DHT22;2166;49.926;8.608;2023-06-14T06:34:19;26.20;45.50
4306;DHT22;2166;49.926;8.608;2023-06-14T06:36:49;26.00;45.20
4306;DHT22;2166;49.926;8.608;2023-06-14T06:39:18;26.30;45.10
4306;DHT22;2166;49.926;8.608;2023-06-14T06:41:47;26.60;44.60
4306;DHT22;2166;49.926;8.608;2023-06-14T06:44:26;26.40;44.70
4306;DHT22;2166;49.926;8.608;2023-06-14T06:46:55;26.60;44.70
4306;DHT22;2166;49.926;8.608;2023-06-14T06:49:25;27.20;43.50
4306;DHT22;2166;49.926;8.608;2023-06-14T06:52:01;27.30;43.50
4306;DHT22;2166;49.926;8.608;2023-06-14T06:54:30;27.80;43.20
4306;DHT22;2166;49.926;8.608;2023-06-14T06:56:59;27.70;42.60
4306;DHT22;2166;49.926;8.608;2023-06-14T06:59:28;27.70;42.40
4306;DHT22;2166;49.926;8.608;2023-06-14T07:01:57;27.70;42.50
4306;DHT22;2166;49.926;8.608;2023-06-14T07:04:27;28.00;42.20
4306;DHT22;2166;49.926;8.608;2023-06-14T07:06:56;27.70;42.30
4306;DHT22;2166;49.926;8.608;2023-06-14T07:09:24;28.10;42.10
4306;DHT22;2166;49.926;8.608;2023-06-14T07:11:53;28.20;41.80
4306;DHT22;2166;49.926;8.608;2023-06-14T07:14:21;28.40;41.60
4306;DHT22;2166;49.926;8.608;2023-06-14T07:16:51;28.70;41.40
4306;DHT22;2166;49.926;8.608;2023-06-14T07:19:21;29.60;40.80
4306;DHT22;2166;49.926;8.608;2023-06-14T07:21:51;30.10;39.40
4306;DHT22;2166;49.926;8.608;2023-06-14T07:24:20;29.80;39.20
4306;DHT22;2166;49.926;8.608;2023-06-14T07:26:49;30.00;39.00
4306;DHT22;2166;49.926;8.608;2023-06-14T07:29:18;30.20;38.70
4306;DHT22;2166;49.926;8.608;2023-06-14T07:31:47;30.50;38.60
4306;DHT22;2166;49.926;8.608;2023-06-14T07:34:16;30.40;38.30
4306;DHT22;2166;49.926;8.608;2023-06-14T07:36:45;30.50;38.10
4306;DHT22;2166;49.926;8.608;2023-06-14T07:39:16;30.40;38.10
4306;DHT22;2166;49.926;8.608;2023-06-14T07:41:44;30.50;38.30
4306;DHT22;2166;49.926;8.608;2023-06-14T07:44:15;31.00;37.90
4306;DHT22;2166;49.926;8.608;2023-06-14T07:46:44;31.40;37.10
4306;DHT22;2166;49.926;8.608;2023-06-14T07:49:16;31.60;37.30
4306;DHT22;2166;49.926;8.608;2023-06-14T07:51:45;32.20;36.80
4306;DHT22;2166;49.926;8.608;2023-06-14T07:54:16;32.10;36.00
4306;DHT22;2166;49.926;8.608;2023-06-14T07:56:44;32.20;35.60
4306;DHT22;2166;49.926;8.608;2023-06-14T07:59:13;31.80;36.40
4306;DHT22;2166;49.926;8.608;2023-06-14T08:01:41;32.20;36.00
4306;DHT22;2166;49.926;8.608;2023-06-14T08:04:14;32.60;35.60
4306;DHT22;2166;49.926;8.608;2023-06-14T08:06:43;33.30;35.00
4306;DHT22;2166;49.926;8.608;2023-06-14T08:09:13;33.40;34.20
4306;DHT22;2166;49.926;8.608;2023-06-14T08:11:43;33.10;34.70
4306;DHT22;2166;49.926;8.608;2023-06-14T08:14:11;33.00;34.30
4306;DHT22;2166;49.926;8.608;2023-06-14T08:16:39;33.40;34.20
4306;DHT22;2166;49.926;8.608;2023-06-14T08:19:09;33.80;33.80
4306;DHT22;2166;49.926;8.608;2023-06-14T08:21:38;34.00;33.60
4306;DHT22;2166;49.926;8.608;2023-06-14T08:24:07;34.60;33.10
4306;DHT22;2166;49.926;8.608;2023-06-14T08:26:35;34.60;33.40
4306;DHT22;2166;49.926;8.608;2023-06-14T08:29:05;34.80;32.30
4306;DHT22;2166;49.926;8.608;2023-06-14T08:31:34;34.60;32.70
4306;DHT22;2166;49.926;8.608;2023-06-14T08:34:03;35.00;32.00
4306;DHT22;2166;49.926;8.608;2023-06-14T08:36:33;35.10;32.10
4306;DHT22;2166;49.926;8.608;2023-06-14T08:39:03;35.30;31.80
4306;DHT22;2166;49.926;8.608;2023-06-14T08:41:32;36.00;30.80
4306;DHT22;2166;49.926;8.608;2023-06-14T08:44:09;35.50;31.00
4306;DHT22;2166;49.926;8.608;2023-06-14T08:46:39;35.30;31.30
4306;DHT22;2166;49.926;8.608;2023-06-14T08:49:11;35.80;31.00
4306;DHT22;2166;49.926;8.608;2023-06-14T08:51:43;36.20;30.40
4306;DHT22;2166;49.926;8.608;2023-06-14T08:54:15;36.00;30.60
4306;DHT22;2166;49.926;8.608;2023-06-14T08:56:48;36.30;30.60
4306;DHT22;2166;49.926;8.608;2023-06-14T08:59:20;36.10;30.10
4306;DHT22;2166;49.926;8.608;2023-06-14T09:01:49;36.00;30.00
4306;DHT22;2166;49.926;8.608;2023-06-14T09:04:38;36.80;30.10
4306;DHT22;2166;49.926;8.608;2023-06-14T09:07:11;37.50;29.00
4306;DHT22;2166;49.926;8.608;2023-06-14T09:09:40;37.40;28.80
4306;DHT22;2166;49.926;8.608;2023-06-14T09:12:30;36.90;29.00
4306;DHT22;2166;49.926;8.608;2023-06-14T09:15:02;36.80;29.10
4306;DHT22;2166;49.926;8.608;2023-06-14T09:17:33;36.60;28.90
4306;DHT22;2166;49.926;8.608;2023-06-14T09:20:03;36.10;28.90
4306;DHT22;2166;49.926;8.608;2023-06-14T09:22:37;35.80;29.70
4306;DHT22;2166;49.926;8.608;2023-06-14T09:25:07;35.30;30.90
4306;DHT22;2166;49.926;8.608;2023-06-14T09:27:53;35.30;30.90
4306;DHT22;2166;49.926;8.608;2023-06-14T09:30:24;36.00;29.50
4306;DHT22;2166;49.926;8.608;2023-06-14T09:32:53;35.20;30.00
4306;DHT22;2166;49.926;8.608;2023-06-14T09:35:24;36.20;30.90
4306;DHT22;2166;49.926;8.608;2023-06-14T09:37:52;37.30;29.80
4306;DHT22;2166;49.926;8.608;2023-06-14T09:40:24;37.70;28.50
4306;DHT22;2166;49.926;8.608;2023-06-14T09:42:53;38.10;27.90
4306;DHT22;2166;49.926;8.608;2023-06-14T09:45:27;38.00;28.40
4306;DHT22;2166;49.926;8.608;2023-06-14T09:47:59;36.70;30.40
4306;DHT22;2166;49.926;8.608;2023-06-14T09:50:34;37.00;30.20
4306;DHT22;2166;49.926;8.608;2023-06-14T09:53:07;37.70;28.70
4306;DHT22;2166;49.926;8.608;2023-06-14T09:55:37;39.20;28.40
4306;DHT22;2166;49.926;8.608;2023-06-14T09:58:07;40.30;27.50
4306;DHT22;2166;49.926;8.608;2023-06-14T10:00:39;40.90;26.80
4306;DHT22;2166;49.926;8.608;2023-06-14T10:03:12;40.80;25.80
4306;DHT22;2166;49.926;8.608;2023-06-14T10:05:45;40.70;27.20
4306;DHT22;2166;49.926;8.608;2023-06-14T10:08:17;41.90;26.30
4306;DHT22;2166;49.926;8.608;2023-06-14T10:10:48;41.90;26.10
4306;DHT22;2166;49.926;8.608;2023-06-14T10:13:17;41.40;26.40
4306;DHT22;2166;49.926;8.608;2023-06-14T10:15:56;41.80;26.20
4306;DHT22;2166;49.926;8.608;2023-06-14T10:18:33;42.00;25.60
4306;DHT22;2166;49.926;8.608;2023-06-14T10:21:08;43.20;25.20
4306;DHT22;2166;49.926;8.608;2023-06-14T10:23:41;43.50;25.00
4306;DHT22;2166;49.926;8.608;2023-06-14T10:26:22;41.80;25.80
4306;DHT22;2166;49.926;8.608;2023-06-14T10:29:01;39.80;27.10
4306;DHT22;2166;49.926;8.608;2023-06-14T10:31:43;38.60;28.30
4306;DHT22;2166;49.926;8.608;2023-06-14T10:34:12;37.60;29.20
4306;DHT22;2166;49.926;8.608;2023-06-14T10:37:01;37.20;29.20
4306;DHT22;2166;49.926;8.608;2023-06-14T10:39:32;37.70;29.50
4306;DHT22;2166;49.926;8.608;2023-06-14T10:42:20;38.10;29.20
4306;DHT22;2166;49.926;8.608;2023-06-14T10:44:50;39.20;28.30
4306;DHT22;2166;49.926;8.608;2023-06-14T10:47:26;39.30;28.40
4306;DHT22;2166;49.926;8.608;2023-06-14T10:49:56;39.90;28.00
4306;DHT22;2166;49.926;8.608;2023-06-14T10:52:27;40.40;27.60
4306;DHT22;2166;49.926;8.608;2023-06-14T10:55:01;41.50;26.30
4306;DHT22;2166;49.926;8.608;2023-06-14T10:57:41;42.80;26.00
4306;DHT22;2166;49.926;8.608;2023-06-14T11:00:19;43.20;25.00
4306;DHT22;2166;49.926;8.608;2023-06-14T11:03:17;42.50;25.70
4306;DHT22;2166;49.926;8.608;2023-06-14T11:05:52;41.30;26.20
4306;DHT22;2166;49.926;8.608;2023-06-14T11:11:25;38.00;28.70
4306;DHT22;2166;49.926;8.608;2023-06-14T11:13:57;39.30;27.60
4306;DHT22;2166;49.926;8.608;2023-06-14T11:16:26;41.40;26.40
4306;DHT22;2166;49.926;8.608;2023-06-14T11:19:00;42.90;25.40
4306;DHT22;2166;49.926;8.608;2023-06-14T11:21:32;42.10;25.60
4306;DHT22;2166;49.926;8.608;2023-06-14T11:24:01;39.30;27.40
4306;DHT22;2166;49.926;8.608;2023-06-14T11:26:31;37.60;29.00
4306;DHT22;2166;49.926;8.608;2023-06-14T11:29:01;36.00;30.00
4306;DHT22;2166;49.926;8.608;2023-06-14T11:31:30;35.30;30.30
4306;DHT22;2166;49.926;8.608;2023-06-14T11:34:02;35.10;30.60
4306;DHT22;2166;49.926;8.608;2023-06-14T11:36:33;34.50;30.90
4306;DHT22;2166;49.926;8.608;2023-06-14T11:39:04;33.40;32.10
4306;DHT22;2166;49.926;8.608;2023-06-14T11:41:36;32.70;33.60
4306;DHT22;2166;49.926;8.608;2023-06-14T11:44:05;32.60;33.30
4306;DHT22;2166;49.926;8.608;2023-06-14T11:46:35;32.50;33.60
4306;DHT22;2166;49.926;8.608;2023-06-14T11:49:07;32.50;33.90
4306;DHT22;2166;49.926;8.608;2023-06-14T11:51:36;31.80;33.60
4306;DHT22;2166;49.926;8.608;2023-06-14T11:54:07;31.10;34.80
4306;DHT22;2166;49.926;8.608;2023-06-14T11:56:36;31.10;35.00
4306;DHT22;2166;49.926;8.608;2023-06-14T11:59:06;31.10;35.50
4306;DHT22;2166;49.926;8.608;2023-06-14T12:01:38;31.30;35.10
4306;DHT22;2166;49.926;8.608;2023-06-14T12:04:09;31.40;34.90
4306;DHT22;2166;49.926;8.608;2023-06-14T12:06:38;31.40;34.30
4306;DHT22;2166;49.926;8.608;2023-06-14T12:09:08;31.30;35.20
4306;DHT22;2166;49.926;8.608;2023-06-14T12:11:41;31.20;35.20
4306;DHT22;2166;49.926;8.608;2023-06-14T12:14:10;31.20;34.60
4306;DHT22;2166;49.926;8.608;2023-06-14T12:16:39;30.80;35.00
4306;DHT22;2166;49.926;8.608;2023-06-14T12:19:13;31.10;35.70
4306;DHT22;2166;49.926;8.608;2023-06-14T12:21:43;32.20;34.10
4306;DHT22;2166;49.926;8.608;2023-06-14T12:24:14;32.90;33.60
4306;DHT22;2166;49.926;8.608;2023-06-14T12:26:43;33.30;32.30
4306;DHT22;2166;49.926;8.608;2023-06-14T12:29:12;33.30;33.30
4306;DHT22;2166;49.926;8.608;2023-06-14T12:31:41;33.50;32.80
4306;DHT22;2166;49.926;8.608;2023-06-14T12:34:11;33.30;32.40
4306;DHT22;2166;49.926;8.608;2023-06-14T12:36:40;32.70;33.60
4306;DHT22;2166;49.926;8.608;2023-06-14T12:39:12;33.00;33.40
4306;DHT22;2166;49.926;8.608;2023-06-14T12:41:40;34.50;31.80
4306;DHT22;2166;49.926;8.608;2023-06-14T12:44:10;35.20;31.10
4306;DHT22;2166;49.926;8.608;2023-06-14T12:46:39;35.20;30.70
4306;DHT22;2166;49.926;8.608;2023-06-14T12:49:12;34.30;31.50
4306;DHT22;2166;49.926;8.608;2023-06-14T12:51:41;33.80;32.50
4306;DHT22;2166;49.926;8.608;2023-06-14T12:54:10;34.60;31.60
4306;DHT22;2166;49.926;8.608;2023-06-14T12:56:39;35.70;30.30
4306;DHT22;2166;49.926;8.608;2023-06-14T12:59:08;37.30;29.60
4306;DHT22;2166;49.926;8.608;2023-06-14T13:01:38;39.00;28.30
4306;DHT22;2166;49.926;8.608;2023-06-14T13:04:07;40.20;26.90
4306;DHT22;2166;49.926;8.608;2023-06-14T13:06:39;40.20;27.00
4306;DHT22;2166;49.926;8.608;2023-06-14T13:09:08;39.10;27.80
4306;DHT22;2166;49.926;8.608;2023-06-14T13:11:37;37.60;28.30
4306;DHT22;2166;49.926;8.608;2023-06-14T13:14:06;36.40;29.70
4306;DHT22;2166;49.926;8.608;2023-06-14T13:16:51;36.90;29.10
4306;DHT22;2166;49.926;8.608;2023-06-14T13:19:20;38.10;27.90
4306;DHT22;2166;49.926;8.608;2023-06-14T13:21:51;39.20;27.30
4306;DHT22;2166;49.926;8.608;2023-06-14T13:24:19;40.10;26.60
4306;DHT22;2166;49.926;8.608;2023-06-14T13:26:49;39.30;27.10
4306;DHT22;2166;49.926;8.608;2023-06-14T13:29:18;37.90;28.20
4306;DHT22;2166;49.926;8.608;2023-06-14T13:31:48;36.50;29.00
4306;DHT22;2166;49.926;8.608;2023-06-14T13:34:17;35.20;30.40
4306;DHT22;2166;49.926;8.608;2023-06-14T13:36:45;34.30;31.40
4306;DHT22;2166;49.926;8.608;2023-06-14T13:39:15;33.70;31.90
4306;DHT22;2166;49.926;8.608;2023-06-14T13:41:45;32.80;32.80
4306;DHT22;2166;49.926;8.608;2023-06-14T13:44:14;32.70;33.50
4306;DHT22;2166;49.926;8.608;2023-06-14T13:46:45;33.20;32.70
4306;DHT22;2166;49.926;8.608;2023-06-14T13:49:14;34.00;31.60
4306;DHT22;2166;49.926;8.608;2023-06-14T13:51:43;34.40;30.30
4306;DHT22;2166;49.926;8.608;2023-06-14T13:54:12;35.70;29.30
4306;DHT22;2166;49.926;8.608;2023-06-14T13:56:42;37.00;28.70
4306;DHT22;2166;49.926;8.608;2023-06-14T13:59:11;38.40;27.90
4306;DHT22;2166;49.926;8.608;2023-06-14T14:01:39;39.20;27.10
4306;DHT22;2166;49.926;8.608;2023-06-14T14:04:08;38.20;27.60
4306;DHT22;2166;49.926;8.608;2023-06-14T14:06:38;37.10;28.50
4306;DHT22;2166;49.926;8.608;2023-06-14T14:09:07;36.00;29.60
4306;DHT22;2166;49.926;8.608;2023-06-14T14:11:36;35.50;29.80
4306;DHT22;2166;49.926;8.608;2023-06-14T14:14:06;35.50;30.10
4306;DHT22;2166;49.926;8.608;2023-06-14T14:16:35;36.00;29.50
4306;DHT22;2166;49.926;8.608;2023-06-14T14:19:04;37.10;28.60
4306;DHT22;2166;49.926;8.608;2023-06-14T14:21:33;36.40;28.70
4306;DHT22;2166;49.926;8.608;2023-06-14T14:24:02;35.70;30.00
4306;DHT22;2166;49.926;8.608;2023-06-14T14:26:31;34.60;30.50
4306;DHT22;2166;49.926;8.608;2023-06-14T14:29:04;33.60;31.40
4306;DHT22;2166;49.926;8.608;2023-06-14T14:31:34;33.00;32.30
4306;DHT22;2166;49.926;8.608;2023-06-14T14:34:04;32.50;32.90
4306;DHT22;2166;49.926;8.608;2023-06-14T14:36:32;32.20;33.30
4306;DHT22;2166;49.926;8.608;2023-06-14T14:39:15;32.00;33.40
4306;DHT22;2166;49.926;8.608;2023-06-14T14:41:44;32.00;33.30
4306;DHT22;2166;49.926;8.608;2023-06-14T14:44:15;32.70;33.10
4306;DHT22;2166;49.926;8.608;2023-06-14T14:46:46;34.20;31.80
4306;DHT22;2166;49.926;8.608;2023-06-14T14:49:21;36.20;30.00
4306;DHT22;2166;49.926;8.608;2023-06-14T14:51:55;37.30;28.90
4306;DHT22;2166;49.926;8.608;2023-06-14T14:54:47;37.50;28.40
4306;DHT22;2166;49.926;8.608;2023-06-14T14:57:16;37.10;28.20
4306;DHT22;2166;49.926;8.608;2023-06-14T14:59:45;36.10;29.30
4306;DHT22;2166;49.926;8.608;2023-06-14T15:02:14;34.90;30.20
4306;DHT22;2166;49.926;8.608;2023-06-14T15:04:44;33.80;31.60
4306;DHT22;2166;49.926;8.608;2023-06-14T15:07:12;33.00;32.50
4306;DHT22;2166;49.926;8.608;2023-06-14T15:09:41;32.40;33.30
4306;DHT22;2166;49.926;8.608;2023-06-14T15:12:10;32.50;32.90
4306;DHT22;2166;49.926;8.608;2023-06-14T15:14:39;32.70;31.90
4306;DHT22;2166;49.926;8.608;2023-06-14T15:17:09;33.30;31.90
4306;DHT22;2166;49.926;8.608;2023-06-14T15:19:39;34.10;31.30
4306;DHT22;2166;49.926;8.608;2023-06-14T15:22:08;35.00;30.60
4306;DHT22;2166;49.926;8.608;2023-06-14T15:24:37;35.50;28.80
4306;DHT22;2166;49.926;8.608;2023-06-14T15:27:10;36.00;28.70
4306;DHT22;2166;49.926;8.608;2023-06-14T15:29:40;36.10;28.30
4306;DHT22;2166;49.926;8.608;2023-06-14T15:32:10;36.30;28.60
4306;DHT22;2166;49.926;8.608;2023-06-14T15:34:41;36.00;29.80
4306;DHT22;2166;49.926;8.608;2023-06-14T15:37:09;35.50;30.00
4306;DHT22;2166;49.926;8.608;2023-06-14T15:39:38;34.90;30.70
4306;DHT22;2166;49.926;8.608;2023-06-14T15:42:07;33.80;31.30
4306;DHT22;2166;49.926;8.608;2023-06-14T15:44:35;32.60;32.60
4306;DHT22;2166;49.926;8.608;2023-06-14T15:47:04;31.70;33.40
4306;DHT22;2166;49.926;8.608;2023-06-14T15:49:34;31.30;34.10
4306;DHT22;2166;49.926;8.608;2023-06-14T15:52:05;30.70;34.70
4306;DHT22;2166;49.926;8.608;2023-06-14T15:54:34;30.10;34.50
4306;DHT22;2166;49.926;8.608;2023-06-14T15:57:03;29.40;36.20
4306;DHT22;2166;49.926;8.608;2023-06-14T15:59:35;29.20;36.50
4306;DHT22;2166;49.926;8.608;2023-06-14T16:02:05;29.80;35.70
4306;DHT22;2166;49.926;8.608;2023-06-14T16:04:34;30.70;35.20
4306;DHT22;2166;49.926;8.608;2023-06-14T16:07:04;31.30;34.10
4306;DHT22;2166;49.926;8.608;2023-06-14T16:09:32;31.80;33.90
4306;DHT22;2166;49.926;8.608;2023-06-14T16:12:01;32.00;32.80
4306;DHT22;2166;49.926;8.608;2023-06-14T16:14:35;32.50;32.20
4306;DHT22;2166;49.926;8.608;2023-06-14T16:17:05;32.50;32.40
4306;DHT22;2166;49.926;8.608;2023-06-14T16:19:35;32.80;31.90
4306;DHT22;2166;49.926;8.608;2023-06-14T16:22:05;33.20;31.70
4306;DHT22;2166;49.926;8.608;2023-06-14T16:24:34;33.70;31.10
4306;DHT22;2166;49.926;8.608;2023-06-14T16:27:02;33.90;31.30